Time;durP1;ratioP1;P1;durP2;ratioP2;P2;SDS_P1;SDS_P2;PMS_P1;PMS_P2;Temp;Humidity;BMP_temperature;BMP_pressure;BME280_temperature;BME280_humidity;BME280_pressure;Samples;Min_cycle;Max_cycle;Signal;HPM_P1;HPM_P2
2023/06/24 00:00:56;;;;;;;11.05;8.90;;;;;;;19.48;82.12;102308.50;5113556;27;20024;-62
2023/06/24 00:03:22;;;;;;;9.38;8.48;;;;;;;19.46;82.53;102309.59;5095014;28;20023;-62
2023/06/24 00:05:49;;;;;;;9.85;8.85;;;;;;;19.22;82.88;102296.16;5094740;28;20539;-62
2023/06/24 00:08:19;;;;;;;9.70;8.77;;;;;;;19.22;83.73;102313.22;5093780;28;20024;-62
2023/06/24 00:10:47;;;;;;;11.05;9.07;;;;;;;19.25;83.58;102306.72;5112529;28;20500;-62
2023/06/24 00:13:14;;;;;;;10.48;9.20;;;;;;;19.23;83.43;102306.81;5094665;28;20443;-62
2023/06/24 00:15:42;;;;;;;10.00;8.82;;;;;;;19.26;83.25;102311.97;5112704;28;20027;-63
2023/06/24 00:18:10;;;;;;;10.70;9.70;;;;;;;19.12;83.98;102308.63;5113119;28;20100;-62
2023/06/24 00:20:36;;;;;;;9.82;8.93;;;;;;;19.19;83.61;102312.59;5112866;28;20015;-62
2023/06/24 00:23:04;;;;;;;10.25;9.13;;;;;;;19.19;83.97;102315.28;5105190;28;20041;-62
2023/06/24 00:25:30;;;;;;;9.95;8.70;;;;;;;19.09;83.90;102307.03;5092856;28;20024;-62
2023/06/24 00:27:55;;;;;;;9.77;8.88;;;;;;;19.03;84.22;102313.75;5111586;28;20071;-61
2023/06/24 00:30:23;;;;;;;10.10;9.10;;;;;;;18.87;85.08;102318.56;5112513;28;20099;-62
2023/06/24 00:32:50;;;;;;;10.07;8.68;;;;;;;18.89;84.73;102295.06;5081074;28;20046;-63
2023/06/24 00:35:17;;;;;;;10.70;9.45;;;;;;;18.89;84.88;102315.78;5105861;28;20019;-62
2023/06/24 00:37:45;;;;;;;12.23;9.88;;;;;;;18.86;85.33;102326.78;5111078;28;20032;-62
2023/06/24 00:40:11;;;;;;;11.02;9.93;;;;;;;18.80;85.69;102320.00;5108755;28;20027;-62
2023/06/24 00:42:37;;;;;;;10.95;9.63;;;;;;;18.81;85.61;102319.88;5084975;28;20042;-62
2023/06/24 00:45:04;;;;;;;10.65;9.65;;;;;;;18.91;85.45;102322.75;5087291;28;20493;-62
2023/06/24 00:47:31;;;;;;;10.80;9.70;;;;;;;18.86;85.57;102313.31;5110334;28;20450;-61
2023/06/24 00:49:57;;;;;;;11.35;10.25;;;;;;;18.88;86.16;102320.28;5111458;28;20072;-62
2023/06/24 00:52:23;;;;;;;10.60;9.60;;;;;;;18.66;86.61;102323.69;5093330;28;20031;-62
2023/06/24 00:54:49;;;;;;;10.77;9.75;;;;;;;18.84;86.28;102334.97;5110450;28;20161;-62
2023/06/24 00:57:17;;;;;;;11.50;10.30;;;;;;;18.71;86.93;102334.16;5111638;28;20484;-62
2023/06/24 00:59:45;;;;;;;11.68;10.48;;;;;;;18.64;87.02;102332.84;5093781;28;20055;-62
2023/06/24 01:02:11;;;;;;;11.32;9.75;;;;;;;18.77;86.57;102322.94;5094075;28;20054;-62
2023/06/24 01:04:37;;;;;;;10.93;9.50;;;;;;;18.61;87.45;102321.31;5093911;28;20020;-62
2023/06/24 01:07:05;;;;;;;11.60;10.40;;;;;;;18.50;87.79;102317.69;5111948;28;20030;-62
2023/06/24 01:09:30;;;;;;;13.65;10.75;;;;;;;18.70;86.99;102314.38;5101202;27;20104;-62
2023/06/24 01:11:56;;;;;;;11.80;10.60;;;;;;;18.58;86.93;102318.84;5133615;27;20472;-62
2023/06/24 01:14:22;;;;;;;11.45;10.35;;;;;;;18.68;86.34;102299.31;5116257;28;20024;-62
2023/06/24 01:17:06;;;;;;;12.18;10.98;;;;;;;18.56;87.06;102318.13;5115907;28;20027;-62
2023/06/24 01:19:59;;;;;;;11.43;10.23;;;;;;;18.69;86.10;102315.38;5098146;28;20494;-62
2023/06/24 01:22:46;;;;;;;11.88;10.23;;;;;;;18.58;86.54;102316.16;5097955;28;20027;-61
2023/06/24 01:25:43;;;;;;;11.88;10.60;;;;;;;18.55;86.85;102311.00;5104905;28;20088;-62
2023/06/24 01:28:56;;;;;;;11.55;10.45;;;;;;;18.52;86.62;102315.75;5115310;28;20019;-62
2023/06/24 01:31:50;;;;;;;11.20;9.98;;;;;;;18.51;86.50;102304.13;5109927;28;20553;-62
2023/06/24 01:34:32;;;;;;;15.23;9.68;;;;;;;18.45;85.96;102301.88;5108704;28;20106;-61
2023/06/24 01:37:06;;;;;;;12.07;10.88;;;;;;;18.31;86.37;102300.19;5114499;28;20609;-62
2023/06/24 01:39:36;;;;;;;10.93;9.82;;;;;;;18.36;86.29;102305.25;5106814;28;20028;-62
2023/06/24 01:42:08;;;;;;;11.60;10.40;;;;;;;18.29;86.33;102309.34;5107297;28;20031;-61
2023/06/24 01:44:35;;;;;;;11.15;10.15;;;;;;;18.26;86.41;102288.03;5114850;28;20474;-62
2023/06/24 01:47:07;;;;;;;12.38;10.88;;;;;;;18.29;87.08;102302.13;5096871;28;20498;-62
2023/06/24 01:49:35;;;;;;;12.27;11.02;;;;;;;18.33;86.86;102305.47;5095328;28;20043;-61
2023/06/24 01:52:04;;;;;;;12.13;10.98;;;;;;;18.28;87.46;102307.63;5113195;27;20077;-61
2023/06/24 01:54:30;;;;;;;12.85;10.68;;;;;;;18.16;88.28;102296.75;5111642;28;20031;-62
2023/06/24 01:56:59;;;;;;;12.57;10.20;;;;;;;18.03;88.18;102298.63;5093434;28;20039;-62
2023/06/24 01:59:28;;;;;;;12.32;11.02;;;;;;;18.18;87.61;102302.06;5114453;28;20023;-64
2023/06/24 02:01:54;;;;;;;10.80;9.70;;;;;;;18.15;87.82;102299.59;5114415;28;20038;-62
2023/06/24 02:04:20;;;;;;;10.80;9.80;;;;;;;18.15;87.41;102300.44;5095446;28;20032;-62
2023/06/24 02:06:47;;;;;;;12.13;9.90;;;;;;;18.07;87.47;102299.28;5114149;28;20027;-62
2023/06/24 02:09:16;;;;;;;10.90;9.85;;;;;;;17.92;87.99;102296.69;5096445;28;20034;-62
2023/06/24 02:11:42;;;;;;;;;;;;;;;18.27;85.75;102290.63;5108115;28;20023;-61
2023/06/24 02:14:10;;;;;;;10.55;9.57;;;;;;;17.82;87.91;102284.84;5083131;28;20374;-62
2023/06/24 02:16:37;;;;;;;11.63;9.93;;;;;;;17.83;87.69;102291.97;5110857;28;20477;-62
2023/06/24 02:19:06;;;;;;;11.88;10.75;;;;;;;17.90;87.58;102290.56;5114010;28;20027;-62
2023/06/24 02:21:36;;;;;;;11.80;9.90;;;;;;;17.82;87.62;102294.75;5095414;28;20027;-62
2023/06/24 02:24:01;;;;;;;;;;;;;;;18.11;85.67;102293.53;5096689;28;20054;-61
2023/06/24 02:26:27;;;;;;;10.48;9.43;;;;;;;17.82;87.14;102295.59;5114943;28;20350;-61
2023/06/24 02:28:54;;;;;;;11.85;9.77;;;;;;;17.83;87.06;102291.97;5095779;28;20029;-61
2023/06/24 02:31:20;;;;;;;11.02;9.82;;;;;;;17.72;87.44;102289.13;5096291;28;20031;-61
2023/06/24 02:33:45;;;;;;;11.45;9.63;;;;;;;17.58;87.86;102284.72;5096765;27;20382;-61
2023/06/24 02:36:11;;;;;;;11.13;10.02;;;;;;;17.67;87.69;102292.13;5114281;28;20031;-61
2023/06/24 02:38:37;;;;;;;11.38;10.23;;;;;;;17.55;88.08;102292.13;5114245;28;20042;-61
2023/06/24 02:41:04;;;;;;;12.05;10.60;;;;;;;17.48;88.55;102286.34;5096780;28;20027;-61
2023/06/24 02:43:30;;;;;;;14.07;10.75;;;;;;;17.59;88.17;102280.19;5096237;28;20035;-61
2023/06/24 02:45:57;;;;;;;11.88;10.52;;;;;;;17.51;88.18;102288.81;5114234;28;20034;-61
2023/06/24 02:48:23;;;;;;;12.10;10.65;;;;;;;17.41;88.90;102275.16;5114290;28;20043;-61
2023/06/24 02:50:49;;;;;;;11.90;10.70;;;;;;;17.41;88.67;102283.22;5114686;27;20019;-62
2023/06/24 02:53:15;;;;;;;10.95;9.85;;;;;;;17.41;88.67;102280.53;5113876;27;20114;-61
2023/06/24 02:55:42;;;;;;;13.02;10.85;;;;;;;17.14;89.29;102277.88;5113017;28;20023;-62
2023/06/24 02:58:09;;;;;;;11.98;10.60;;;;;;;17.24;89.10;102278.13;5113177;28;20025;-61
2023/06/24 03:00:36;;;;;;;11.50;10.32;;;;;;;17.35;88.84;102296.19;5097016;28;20410;-61
2023/06/24 03:03:06;;;;;;;12.40;11.20;;;;;;;17.18;89.33;102303.59;5090972;28;20020;-61
2023/06/24 03:05:32;;;;;;;12.23;10.93;;;;;;;17.11;89.40;102296.91;5101355;28;20051;-61
2023/06/24 03:07:58;;;;;;;12.05;10.85;;;;;;;17.22;89.27;102306.94;5094458;28;20029;-61
2023/06/24 03:10:25;;;;;;;13.10;11.57;;;;;;;17.09;90.02;102317.66;5112418;28;20090;-61
2023/06/24 03:12:51;;;;;;;12.20;10.90;;;;;;;17.01;90.26;102315.50;5112810;28;20030;-61
2023/06/24 03:15:16;;;;;;;12.70;11.50;;;;;;;17.00;90.17;102311.09;5105190;28;20474;-62
2023/06/24 03:17:42;;;;;;;12.80;11.60;;;;;;;16.97;90.20;102303.22;5084479;28;20024;-61
2023/06/24 03:20:08;;;;;;;14.95;11.95;;;;;;;17.11;89.68;102306.81;5111025;28;20089;-62
2023/06/24 03:22:34;;;;;;;12.63;11.52;;;;;;;17.16;89.21;102307.34;5113927;28;20024;-61
2023/06/24 03:24:59;;;;;;;12.70;11.40;;;;;;;17.13;89.08;102300.34;5107919;28;20378;-62
2023/06/24 03:27:24;;;;;;;13.05;11.82;;;;;;;17.07;89.17;102302.59;5093352;28;20299;-62
2023/06/24 03:29:50;;;;;;;12.45;11.23;;;;;;;17.05;89.25;102291.94;5093014;28;20040;-62
2023/06/24 03:32:15;;;;;;;13.65;12.32;;;;;;;17.11;89.68;102304.13;5093914;28;20111;-62
2023/06/24 03:34:44;;;;;;;13.02;11.73;;;;;;;16.82;90.91;102289.94;5081790;28;20024;-62
2023/06/24 03:37:09;;;;;;;13.93;12.52;;;;;;;16.93;91.16;102295.47;5105069;28;20051;-62
2023/06/24 03:39:35;;;;;;;13.68;12.13;;;;;;;16.91;91.10;102289.31;5085707;28;20062;-62
2023/06/24 03:42:00;;;;;;;13.13;11.88;;;;;;;16.92;90.84;102280.31;5104662;28;20474;-61
2023/06/24 03:44:26;;;;;;;13.88;12.30;;;;;;;16.91;90.49;102292.88;5093422;28;20039;-62
2023/06/24 03:46:51;;;;;;;14.48;12.77;;;;;;;16.97;90.01;102292.47;5101092;28;20035;-62
2023/06/24 03:49:17;;;;;;;13.68;12.32;;;;;;;16.93;90.07;102304.38;5111517;28;20402;-61
2023/06/24 03:51:43;;;;;;;14.80;12.75;;;;;;;16.77;90.88;102301.00;5092089;28;20122;-62
2023/06/24 03:54:09;;;;;;;14.48;12.98;;;;;;;16.83;91.05;102305.97;5105754;28;20106;-63
2023/06/24 03:56:34;;;;;;;14.00;12.65;;;;;;;16.86;90.52;102310.28;5100170;28;20068;-62
2023/06/24 03:59:00;;;;;;;14.32;12.93;;;;;;;16.82;89.73;102314.13;5093805;28;20077;-62
2023/06/24 04:01:25;;;;;;;14.57;12.95;;;;;;;16.90;90.31;102314.47;5097912;28;20110;-62
2023/06/24 04:03:50;;;;;;;13.60;12.20;;;;;;;16.87;90.66;102320.91;5114291;27;20028;-62
2023/06/24 04:06:16;;;;;;;14.23;12.82;;;;;;;16.80;91.36;102322.28;5112080;28;20058;-62
2023/06/24 04:08:42;;;;;;;16.00;14.40;;;;;;;16.81;91.30;102315.94;5079190;28;20372;-62
2023/06/24 04:11:08;;;;;;;15.07;13.15;;;;;;;16.85;91.12;102319.28;5109336;28;20043;-62
2023/06/24 04:13:34;;;;;;;15.73;13.35;;;;;;;16.66;91.68;102314.25;5112314;28;20097;-62
2023/06/24 04:15:59;;;;;;;15.68;12.88;;;;;;;16.73;92.22;102310.19;5095382;27;20059;-62
2023/06/24 04:18:24;;;;;;;13.90;12.50;;;;;;;16.74;91.79;102307.41;5094155;28;20125;-62
2023/06/24 04:20:50;;;;;;;15.75;14.00;;;;;;;16.83;92.02;102311.34;5112736;28;20023;-61
2023/06/24 04:23:15;;;;;;;15.15;13.63;;;;;;;16.71;92.27;102320.19;5112694;28;20043;-62
2023/06/24 04:25:42;;;;;;;15.57;14.05;;;;;;;16.68;92.48;102318.56;5109941;28;20118;-62
2023/06/24 04:28:07;;;;;;;14.82;13.45;;;;;;;16.89;91.83;102328.88;5094150;28;20015;-62
2023/06/24 04:30:35;;;;;;;17.52;13.70;;;;;;;16.70;91.80;102313.91;5111760;28;20023;-61
2023/06/24 04:33:02;;;;;;;14.95;13.27;;;;;;;16.77;89.75;102311.75;5112904;27;20029;-62
2023/06/24 04:35:28;;;;;;;16.50;13.98;;;;;;;16.84;90.64;102320.25;5107810;28;20390;-62
2023/06/24 04:37:53;;;;;;;15.70;13.95;;;;;;;16.88;89.02;102317.25;5103512;28;20034;-62
2023/06/24 04:40:19;;;;;;;16.13;13.40;;;;;;;16.87;88.26;102303.94;5109897;28;20470;-62
2023/06/24 04:42:45;;;;;;;15.70;13.95;;;;;;;16.89;88.21;102321.69;5112344;28;20038;-62
2023/06/24 04:45:11;;;;;;;16.67;14.65;;;;;;;16.92;87.54;102320.63;5111628;28;20031;-62
2023/06/24 04:47:36;;;;;;;17.30;15.13;;;;;;;16.94;88.06;102322.25;5110647;28;20044;-62
2023/06/24 04:50:03;;;;;;;16.98;15.20;;;;;;;16.93;87.40;102322.34;5096056;28;20455;-62
2023/06/24 04:52:28;;;;;;;17.80;15.70;;;;;;;17.06;86.62;102317.00;5093540;28;20024;-62
2023/06/24 04:54:54;;;;;;;18.25;15.43;;;;;;;17.15;85.75;102313.72;5110739;28;20033;-62
2023/06/24 04:57:30;;;;;;;18.95;16.55;;;;;;;17.20;85.36;102320.47;5111580;28;20027;-61
2023/06/24 04:59:56;;;;;;;18.42;16.50;;;;;;;17.13;86.20;102303.03;5111850;28;20434;-62
2023/06/24 05:02:24;;;;;;;21.27;17.13;;;;;;;17.22;85.63;102320.38;5110149;28;20027;-62
2023/06/24 05:04:52;;;;;;;18.40;16.50;;;;;;;17.30;85.08;102309.13;5110070;28;20031;-62
2023/06/24 05:07:17;;;;;;;18.88;16.10;;;;;;;17.26;87.05;102316.50;5111823;28;20020;-62
2023/06/24 05:09:43;;;;;;;18.95;17.00;;;;;;;17.39;86.38;102309.34;5111107;28;20496;-62
2023/06/24 05:12:09;;;;;;;19.10;16.98;;;;;;;17.58;85.91;102314.31;5112177;28;20030;-62
2023/06/24 05:14:36;;;;;;;18.00;16.08;;;;;;;17.61;84.09;102329.38;5112038;28;20023;-62
2023/06/24 05:17:02;;;;;;;19.30;16.08;;;;;;;17.59;84.76;102310.66;5093768;28;20028;-61
2023/06/24 05:19:27;;;;;;;19.42;16.35;;;;;;;17.71;84.69;102320.56;5111772;28;20027;-62
2023/06/24 05:21:56;;;;;;;19.40;16.73;;;;;;;17.70;85.69;102317.97;5111490;28;20023;-62
2023/06/24 05:24:21;;;;;;;20.70;17.02;;;;;;;17.72;83.43;102316.03;5111505;28;20011;-62
2023/06/24 05:26:48;;;;;;;18.08;16.17;;;;;;;17.76;83.53;102309.47;5111720;28;20035;-61
2023/06/24 05:29:14;;;;;;;18.42;16.45;;;;;;;17.72;83.18;102318.75;5076730;28;20553;-62
2023/06/24 05:31:40;;;;;;;18.02;16.23;;;;;;;17.67;83.55;102292.13;5111802;28;20153;-62
2023/06/24 05:34:06;;;;;;;18.27;15.85;;;;;;;17.94;83.34;102326.19;5111631;28;20020;-61
2023/06/24 05:36:31;;;;;;;18.70;15.52;;;;;;;18.04;81.59;102318.34;5111910;28;20038;-62
2023/06/24 05:38:57;;;;;;;20.30;16.05;;;;;;;18.17;82.08;102338.03;5110690;28;20023;-61
2023/06/24 05:41:22;;;;;;;22.52;15.77;;;;;;;18.24;82.13;102328.53;5093703;28;20907;-62
2023/06/24 05:43:47;;;;;;;17.45;15.75;;;;;;;18.31;81.90;102332.50;5093377;28;20033;-62
2023/06/24 05:46:13;;;;;;;17.63;15.18;;;;;;;18.44;78.95;102334.31;5093306;28;20015;-62
2023/06/24 05:48:39;;;;;;;16.42;14.82;;;;;;;18.45;78.29;102336.06;5092912;28;20142;-62
2023/06/24 05:51:04;;;;;;;15.75;14.05;;;;;;;18.56;78.74;102333.41;5093247;28;20065;-62
2023/06/24 05:53:34;;;;;;;16.45;14.77;;;;;;;18.64;76.33;102330.16;5111399;28;20486;-62
2023/06/24 05:56:02;;;;;;;15.85;14.23;;;;;;;18.63;77.45;102336.53;5096435;28;20035;-62
2023/06/24 05:58:28;;;;;;;24.27;14.25;;;;;;;18.80;79.88;102334.34;5111917;28;20032;-62
2023/06/24 06:00:55;;;;;;;14.45;13.05;;;;;;;18.80;76.04;102331.66;5115162;28;20069;-62
2023/06/24 06:03:20;;;;;;;17.45;13.40;;;;;;;18.95;75.27;102337.72;5115151;28;20073;-62
2023/06/24 06:05:48;;;;;;;13.35;12.02;;;;;;;19.00;75.28;102335.56;5115178;28;20470;-62
2023/06/24 06:08:13;;;;;;;14.88;13.35;;;;;;;19.13;74.27;102327.41;5096044;28;20028;-62
2023/06/24 06:10:39;;;;;;;14.75;12.82;;;;;;;19.17;75.95;102328.88;5094879;28;20100;-62
2023/06/24 06:13:04;;;;;;;15.63;13.07;;;;;;;19.19;72.76;102337.72;5076290;28;20532;-62
2023/06/24 06:15:29;;;;;;;14.13;12.55;;;;;;;19.33;72.41;102336.69;5094930;28;20039;-62
2023/06/24 06:17:55;;;;;;;15.05;12.73;;;;;;;19.35;71.86;102337.41;5077414;28;20550;-62
2023/06/24 06:20:20;;;;;;;14.68;12.15;;;;;;;19.47;71.47;102341.00;5094597;28;20019;-61
2023/06/24 06:22:48;;;;;;;12.73;11.48;;;;;;;19.46;73.48;102329.34;5076567;28;20035;-62
2023/06/24 06:25:13;;;;;;;15.80;12.43;;;;;;;19.59;70.92;102333.78;5094105;28;20024;-62
2023/06/24 06:27:39;;;;;;;12.75;11.45;;;;;;;19.65;69.39;102344.16;5109840;28;20033;-62
2023/06/24 06:30:05;;;;;;;13.75;12.00;;;;;;;19.73;71.23;102349.81;5096232;28;20023;-62
2023/06/24 06:32:30;;;;;;;13.27;11.77;;;;;;;19.80;71.54;102350.22;5096515;28;20501;-61
2023/06/24 06:34:56;;;;;;;12.68;11.30;;;;;;;19.88;69.32;102347.75;5096371;28;20028;-62
2023/06/24 06:37:23;;;;;;;14.18;11.85;;;;;;;20.00;68.40;102341.41;5113018;28;20027;-62
2023/06/24 06:39:49;;;;;;;14.95;12.30;;;;;;;20.04;68.59;102347.41;5114170;28;20095;-62
2023/06/24 06:42:15;;;;;;;13.02;11.55;;;;;;;20.16;67.81;102351.84;5096222;28;20058;-62
2023/06/24 06:44:41;;;;;;;12.77;10.73;;;;;;;20.20;67.26;102359.56;5096268;28;20020;-62
2023/06/24 06:47:06;;;;;;;11.80;10.60;;;;;;;20.28;65.44;102358.09;5100773;28;20027;-62
2023/06/24 06:49:32;;;;;;;11.70;10.43;;;;;;;20.32;64.16;102355.00;5093979;28;20032;-62
2023/06/24 06:51:57;;;;;;;11.40;10.25;;;;;;;20.48;63.94;102361.91;5094105;28;20032;-62
2023/06/24 06:54:22;;;;;;;10.68;9.60;;;;;;;20.53;64.08;102365.09;5093600;28;20028;-62
2023/06/24 06:56:48;;;;;;;16.35;9.02;;;;;;;20.64;62.88;102365.09;5095874;28;20031;-62
2023/06/24 06:59:13;;;;;;;9.45;7.97;;;;;;;20.76;62.57;102365.94;5093297;28;20099;-62
2023/06/24 07:01:39;;;;;;;9.20;8.23;;;;;;;20.77;63.03;102373.94;5114344;28;20064;-62
2023/06/24 07:04:04;;;;;;;9.77;8.25;;;;;;;20.82;61.27;102373.53;5095800;28;20031;-62
2023/06/24 07:06:32;;;;;;;10.38;8.20;;;;;;;20.78;60.62;102380.19;5084864;28;20115;-62
2023/06/24 07:08:57;;;;;;;12.27;7.78;;;;;;;20.90;61.48;102376.47;5092845;28;20032;-62
2023/06/24 07:11:23;;;;;;;12.52;7.93;;;;;;;20.95;60.31;102379.66;5075310;28;20031;-62
2023/06/24 07:13:50;;;;;;;14.68;7.53;;;;;;;20.98;59.97;102378.56;5093414;28;20020;-62
2023/06/24 07:16:16;;;;;;;10.65;7.47;;;;;;;21.01;59.27;102386.41;5094426;28;20437;-62
2023/06/24 07:18:44;;;;;;;9.95;7.30;;;;;;;21.05;58.75;102387.88;5093351;28;20024;-62
2023/06/24 07:21:09;;;;;;;8.68;7.32;;;;;;;21.19;59.13;102389.44;5093313;28;20016;-62
2023/06/24 07:23:35;;;;;;;7.88;6.65;;;;;;;21.13;58.01;102379.13;5058053;28;20028;-62
2023/06/24 07:26:00;;;;;;;9.57;8.00;;;;;;;21.41;58.32;102378.53;5101777;28;20024;-62
2023/06/24 07:28:26;;;;;;;8.18;6.75;;;;;;;21.53;57.25;102376.63;5113404;28;20102;-62
2023/06/24 07:30:51;;;;;;;10.43;7.13;;;;;;;21.42;56.47;102371.28;5095285;28;20030;-62
2023/06/24 07:33:16;;;;;;;9.13;7.00;;;;;;;21.62;57.27;102373.16;5113456;28;20019;-62
2023/06/24 07:35:42;;;;;;;10.48;6.50;;;;;;;21.65;57.93;102372.00;5111785;28;20455;-62
2023/06/24 07:38:07;;;;;;;7.97;7.05;;;;;;;21.72;56.24;102375.94;5113064;28;20119;-62
2023/06/24 07:40:35;;;;;;;7.85;7.07;;;;;;;21.83;57.25;102373.16;5095148;28;20030;-63
2023/06/24 07:43:00;;;;;;;12.55;8.38;;;;;;;21.75;56.90;102376.50;5113547;28;20546;-62
2023/06/24 07:45:26;;;;;;;11.60;7.32;;;;;;;21.80;57.58;102369.84;5107134;28;20103;-63
2023/06/24 07:47:51;;;;;;;7.40;6.50;;;;;;;21.98;57.95;102379.09;5074833;28;20040;-63
2023/06/24 07:50:16;;;;;;;7.25;6.55;;;;;;;22.00;59.30;102372.53;5074717;28;20020;-62
2023/06/24 07:52:42;;;;;;;9.75;7.47;;;;;;;21.98;57.97;102374.53;5092978;28;20459;-62
2023/06/24 07:55:07;;;;;;;12.38;6.90;;;;;;;22.08;57.54;102368.28;5092525;28;20031;-63
2023/06/24 07:57:33;;;;;;;9.13;7.35;;;;;;;22.01;56.08;102378.81;5097357;28;20023;-62
2023/06/24 07:59:58;;;;;;;10.00;6.68;;;;;;;21.98;53.83;102376.38;5112699;28;20019;-62
2023/06/24 08:02:24;;;;;;;9.02;5.93;;;;;;;22.10;56.38;102379.88;5113024;28;20024;-62
2023/06/24 08:04:50;;;;;;;6.75;6.05;;;;;;;22.17;55.71;102381.06;5109536;28;20027;-62
2023/06/24 08:07:15;;;;;;;7.82;5.68;;;;;;;22.38;55.97;102364.75;5107291;28;20028;-73
2023/06/24 08:09:41;;;;;;;6.28;5.68;;;;;;;22.51;57.29;102364.53;5097194;28;20024;-73
2023/06/24 08:12:10;;;;;;;6.32;4.78;;;;;;;22.61;55.30;102368.97;5118458;27;20034;-68
2023/06/24 08:14:35;;;;;;;6.03;4.50;;;;;;;22.63;51.60;102368.84;5112698;28;20076;-72
2023/06/24 08:17:01;;;;;;;6.28;4.82;;;;;;;22.68;51.90;102375.56;5095420;28;20035;-69
2023/06/24 08:19:26;;;;;;;5.22;4.72;;;;;;;22.83;52.78;102370.59;5091347;28;20016;-73
2023/06/24 08:21:54;;;;;;;4.60;4.13;;;;;;;22.83;51.99;102367.03;5092211;28;20020;-70
2023/06/24 08:24:19;;;;;;;5.07;4.25;;;;;;;23.00;53.87;102368.22;5091572;28;20059;-68
2023/06/24 08:26:45;;;;;;;3.90;3.50;;;;;;;22.97;50.13;102366.66;5093254;28;20059;-68
2023/06/24 08:29:10;;;;;;;4.80;3.10;;;;;;;23.09;48.89;102372.81;5073747;28;20024;-68
2023/06/24 08:31:35;;;;;;;3.55;3.25;;;;;;;23.02;47.50;102364.38;5092281;28;20023;-73
2023/06/24 08:34:02;;;;;;;3.72;3.42;;;;;;;23.23;47.74;102358.78;5092157;28;20528;-68
2023/06/24 08:36:31;;;;;;;4.75;4.00;;;;;;;23.24;51.69;102363.25;5075218;28;20015;-70
2023/06/24 08:38:56;;;;;;;4.47;3.38;;;;;;;23.32;48.64;102357.09;5091492;28;20024;-66
2023/06/24 08:41:24;;;;;;;4.63;3.17;;;;;;;23.28;46.12;102359.22;5092300;28;20027;-63
2023/06/24 08:43:50;;;;;;;4.25;3.00;;;;;;;23.39;47.80;102360.09;5073796;28;20028;-63
2023/06/24 08:46:17;;;;;;;3.38;3.08;;;;;;;23.47;48.69;102361.09;5100851;28;20486;-63
2023/06/24 08:48:45;;;;;;;3.63;3.15;;;;;;;23.41;47.50;102352.66;5112234;28;20051;-62
2023/06/24 08:51:15;;;;;;;3.78;2.95;;;;;;;23.43;47.45;102356.09;5094141;28;20016;-63
2023/06/24 08:53:43;;;;;;;4.35;3.70;;;;;;;23.58;50.70;102355.47;5111697;28;20035;-62
2023/06/24 08:56:09;;;;;;;4.43;2.70;;;;;;;23.70;46.96;102345.34;5088648;28;20074;-69
2023/06/24 08:58:35;;;;;;;3.50;3.20;;;;;;;23.75;48.73;102340.34;5103740;28;20814;-69
2023/06/24 09:01:04;;;;;;;5.07;2.80;;;;;;;23.77;46.94;102343.78;5112309;28;20047;-70
2023/06/24 09:03:29;;;;;;;;;;;;;;;23.97;47.72;102354.56;5094383;28;20034;-69
2023/06/24 09:05:55;;;;;;;3.97;2.95;;;;;;;23.82;45.87;102354.19;5093787;28;19908;-62
2023/06/24 09:08:22;;;;;;;3.22;2.88;;;;;;;23.77;43.27;102342.91;5109809;28;20036;-63
2023/06/24 09:10:58;;;;;;;2.92;2.60;;;;;;;23.86;44.90;102352.06;5112153;28;20034;-62
2023/06/24 09:13:36;;;;;;;3.92;3.28;;;;;;;23.99;45.50;102349.84;5093909;28;20307;-62
2023/06/24 09:16:11;;;;;;;;;;;;;;;24.06;46.12;102347.38;5112619;28;20020;-62
2023/06/24 09:18:36;;;;;;;4.18;3.03;;;;;;;23.91;43.59;102355.16;5110163;28;19911;-70
2023/06/24 09:21:03;;;;;;;4.82;3.15;;;;;;;24.02;44.87;102344.97;5112015;28;20081;-69
2023/06/24 09:23:28;;;;;;;3.83;3.35;;;;;;;24.12;43.43;102334.09;5092817;28;20019;-70
2023/06/24 09:25:57;;;;;;;5.35;3.47;;;;;;;24.09;44.10;102347.97;5093747;28;20030;-69
2023/06/24 09:28:27;;;;;;;3.55;3.08;;;;;;;24.22;45.27;102331.31;5110027;28;20447;-69
2023/06/24 09:31:08;;;;;;;4.78;3.90;;;;;;;24.37;44.95;102335.25;5113851;28;20023;-61
2023/06/24 09:33:34;;;;;;;4.05;3.60;;;;;;;24.35;44.95;102328.22;5112359;28;20420;-62
2023/06/24 09:36:02;;;;;;;4.53;3.53;;;;;;;24.40;46.20;102326.78;5089337;28;20057;-74
2023/06/24 09:38:36;;;;;;;5.97;3.50;;;;;;;24.42;45.73;102324.81;5114915;28;20032;-70
2023/06/24 09:41:04;;;;;;;4.20;3.03;;;;;;;24.54;42.76;102317.28;5096459;28;20102;-71
2023/06/24 09:43:34;;;;;;;3.72;2.70;;;;;;;24.69;43.39;102317.63;5115258;28;20050;-72
2023/06/24 09:46:06;;;;;;;4.40;2.90;;;;;;;24.68;43.27;102311.31;5115973;28;20027;-74
2023/06/24 09:48:32;;;;;;;5.05;3.47;;;;;;;24.73;43.13;102318.16;5106211;28;20079;-66
2023/06/24 09:51:03;;;;;;;5.78;3.22;;;;;;;24.79;43.63;102317.53;5104204;28;20027;-71
2023/06/24 09:53:34;;;;;;;4.78;2.97;;;;;;;24.87;43.35;102312.19;5083109;28;20034;-70
2023/06/24 09:56:01;;;;;;;7.22;3.58;;;;;;;25.07;43.01;102319.19;5115652;28;20026;-62
2023/06/24 09:58:35;;;;;;;5.15;3.13;;;;;;;25.06;42.83;102303.88;5115432;28;20027;-62
2023/06/24 10:01:05;;;;;;;5.53;3.05;;;;;;;24.98;42.07;102308.41;5108364;28;20027;-62
2023/06/24 10:03:34;;;;;;;3.33;2.70;;;;;;;25.06;39.44;102309.31;5111854;27;20027;-70
2023/06/24 10:06:01;;;;;;;4.50;3.20;;;;;;;25.15;42.47;102305.69;5076629;28;20024;-72
2023/06/24 10:08:28;;;;;;;6.00;3.13;;;;;;;25.22;41.97;102307.78;5109359;27;20406;-71
2023/06/24 10:10:54;;;;;;;4.75;2.83;;;;;;;25.40;41.76;102311.31;5086842;28;20024;-71
2023/06/24 10:13:19;;;;;;;5.22;2.67;;;;;;;25.41;41.76;102312.19;5115000;28;20050;-73
2023/06/24 10:15:45;;;;;;;5.03;3.35;;;;;;;25.46;42.64;102309.84;5113476;28;20402;-69
2023/06/24 10:18:30;;;;;;;5.18;2.97;;;;;;;25.48;41.93;102308.66;5114919;28;20027;-66
2023/06/24 10:20:58;;;;;;;5.63;3.13;;;;;;;25.45;41.66;102311.72;5090297;28;20028;-65
2023/06/24 10:23:30;;;;;;;4.05;3.10;;;;;;;25.45;39.45;102306.25;5095652;28;20068;-66
2023/06/24 10:25:58;;;;;;;3.22;2.92;;;;;;;25.51;38.45;102296.59;5113162;28;20106;-67
2023/06/24 10:28:23;;;;;;;3.30;2.95;;;;;;;25.58;39.79;102303.97;5094665;28;20027;-64
2023/06/24 10:30:56;;;;;;;5.78;3.33;;;;;;;25.58;39.04;102301.22;5114059;27;20157;-66
2023/06/24 10:33:23;;;;;;;3.40;3.10;;;;;;;25.77;40.77;102292.00;5113969;28;20015;-68
2023/06/24 10:35:50;;;;;;;5.72;3.35;;;;;;;25.69;38.10;102296.53;5114239;28;20023;-68
2023/06/24 10:38:16;;;;;;;4.53;3.17;;;;;;;25.87;39.10;102288.31;5113876;28;20494;-62
2023/06/24 10:40:44;;;;;;;3.15;2.58;;;;;;;25.85;38.74;102285.75;5114358;28;20024;-63
2023/06/24 10:43:29;;;;;;;3.63;3.20;;;;;;;25.92;40.67;102286.81;5113560;28;20219;-63
2023/06/24 10:45:58;;;;;;;4.80;2.80;;;;;;;25.93;39.41;102293.97;5114801;28;20034;-63
2023/06/24 10:48:23;;;;;;;6.10;3.20;;;;;;;26.01;41.51;102285.84;5113870;27;20234;-62
2023/06/24 10:50:49;;;;;;;3.83;3.50;;;;;;;25.99;40.65;102284.28;5112039;28;20394;-63
2023/06/24 10:53:18;;;;;;;9.02;3.53;;;;;;;26.12;40.47;102283.81;5113520;28;20061;-62
2023/06/24 10:55:45;;;;;;;4.53;3.37;;;;;;;26.26;40.46;102285.94;5114463;28;20386;-62
2023/06/24 10:58:15;;;;;;;5.47;3.50;;;;;;;26.33;41.75;102278.81;5079168;28;20471;-62
2023/06/24 11:00:41;;;;;;;4.15;3.40;;;;;;;26.36;42.77;102278.47;5114462;28;20381;-62
2023/06/24 11:03:15;;;;;;;5.15;3.90;;;;;;;26.22;40.67;102279.97;5092869;28;20057;-62
2023/06/24 11:05:42;;;;;;;4.25;3.85;;;;;;;26.12;40.78;102276.53;5096045;28;20035;-61
2023/06/24 11:08:08;;;;;;;4.15;3.75;;;;;;;26.17;39.78;102276.03;5100710;28;20031;-68
2023/06/24 11:10:42;;;;;;;4.90;3.47;;;;;;;26.42;40.60;102274.25;5097440;28;20524;-73
2023/06/24 11:13:07;;;;;;;4.43;3.50;;;;;;;26.43;40.96;102268.59;5105496;28;20028;-70
2023/06/24 11:15:33;;;;;;;5.15;3.30;;;;;;;26.47;42.82;102261.81;5102465;28;20023;-69
2023/06/24 11:18:04;;;;;;;5.35;4.03;;;;;;;26.64;41.10;102267.31;5096041;28;20395;-69